Time;durP1;ratioP1;P1;durP2;ratioP2;P2;SDS_P1;SDS_P2;PMS_P1;PMS_P2;Temp;Humidity;BMP_temperature;BMP_pressure;BME280_temperature;BME280_humidity;BME280_pressure;Samples;Min_cycle;Max_cycle;Signal;HPM_P1;HPM_P2
2023/07/21 00:00:23;;;;;;;2.60;2.33;;;14.70;99.90;;;;;;4998101;28;20431;-82
2023/07/21 00:02:49;;;;;;;2.10;1.50;;;14.70;99.90;;;;;;4998641;28;20070;-81
2023/07/21 00:05:16;;;;;;;3.25;2.03;;;14.60;99.90;;;;;;5001690;28;20255;-82
2023/07/21 00:07:42;;;;;;;3.60;2.20;;;14.70;99.90;;;;;;5001623;28;20033;-81
2023/07/21 00:10:09;;;;;;;4.00;2.13;;;14.50;99.90;;;;;;5000232;28;20061;-81
2023/07/21 00:12:40;;;;;;;3.50;2.08;;;14.60;99.90;;;;;;4998633;28;20046;-83
2023/07/21 00:15:06;;;;;;;5.70;2.20;;;14.60;99.90;;;;;;4999511;28;20038;-82
2023/07/21 00:17:34;;;;;;;3.63;2.25;;;14.60;99.90;;;;;;5000608;28;20046;-83
2023/07/21 00:20:09;;;;;;;5.45;3.22;;;14.80;99.90;;;;;;5002818;28;20061;-83
2023/07/21 00:22:35;;;;;;;2.30;1.98;;;14.50;99.90;;;;;;5006611;28;20521;-81
2023/07/21 00:25:05;;;;;;;2.78;2.53;;;14.50;99.90;;;;;;5004226;28;20045;-82
2023/07/21 00:27:31;;;;;;;4.07;2.58;;;14.50;99.90;;;;;;4968613;28;20054;-81
2023/07/21 00:29:58;;;;;;;3.63;2.45;;;14.60;99.90;;;;;;5000499;28;20072;-82
2023/07/21 00:32:23;;;;;;;3.40;2.00;;;14.40;99.90;;;;;;4981165;28;20050;-83
2023/07/21 00:34:51;;;;;;;4.75;1.90;;;14.40;99.90;;;;;;4997360;28;20034;-82
2023/07/21 00:37:17;;;;;;;5.05;2.22;;;14.40;99.90;;;;;;5000750;28;20604;-82
2023/07/21 00:39:44;;;;;;;4.93;2.20;;;14.30;99.90;;;;;;5001724;28;20173;-82
2023/07/21 00:42:11;;;;;;;2.20;1.85;;;14.20;99.90;;;;;;4999306;28;20405;-82
2023/07/21 00:44:37;;;;;;;4.50;2.28;;;14.20;99.90;;;;;;4998162;28;20553;-81
2023/07/21 00:47:03;;;;;;;3.00;1.73;;;14.20;99.90;;;;;;4998384;28;20114;-83
2023/07/21 00:49:32;;;;;;;2.50;2.30;;;14.20;99.90;;;;;;5000608;28;20548;-82
2023/07/21 00:51:58;;;;;;;3.05;2.05;;;14.20;99.90;;;;;;5001226;28;20049;-81
2023/07/21 00:54:23;;;;;;;2.92;1.95;;;14.20;99.90;;;;;;4989863;28;20042;-83
2023/07/21 00:56:49;;;;;;;2.63;2.40;;;14.10;99.90;;;;;;4979583;28;20315;-83
2023/07/21 00:59:17;;;;;;;3.72;2.05;;;14.10;99.90;;;;;;4999868;28;20050;-81
2023/07/21 01:01:42;;;;;;;2.35;2.15;;;14.10;99.90;;;;;;5001181;28;20050;-81
2023/07/21 01:04:09;;;;;;;6.18;2.30;;;14.10;99.90;;;;;;4999809;28;20041;-81
2023/07/21 01:06:37;;;;;;;2.88;2.13;;;14.00;99.90;;;;;;4980059;28;20053;-81
2023/07/21 01:09:04;;;;;;;2.53;2.10;;;14.00;99.90;;;;;;4997464;28;20057;-81
2023/07/21 01:11:31;;;;;;;3.47;1.98;;;13.90;99.90;;;;;;4996959;28;20402;-82
2023/07/21 01:14:02;;;;;;;3.03;2.45;;;13.90;99.90;;;;;;4997361;28;20084;-82
2023/07/21 01:16:29;;;;;;;3.92;2.20;;;13.80;99.90;;;;;;4972615;28;20510;-82
2023/07/21 01:18:56;;;;;;;3.83;1.80;;;15.30;99.90;;;;;;4979308;28;20096;-82
2023/07/21 01:21:35;;;;;;;3.53;1.85;;;13.80;99.90;;;;;;5000456;28;20038;-82
2023/07/21 01:24:21;;;;;;;3.58;1.70;;;13.80;99.90;;;;;;5000013;28;20438;-82
2023/07/21 01:26:49;;;;;;;2.72;1.92;;;13.80;99.90;;;;;;4997022;28;20498;-81
2023/07/21 01:29:19;;;;;;;3.28;2.30;;;13.80;99.90;;;;;;4997333;28;20050;-83
2023/07/21 01:31:48;;;;;;;1.95;1.80;;;15.10;99.90;;;;;;4984842;28;20528;-82
2023/07/21 01:34:15;;;;;;;3.10;1.90;;;15.00;99.90;;;;;;5003932;28;20041;-81
2023/07/21 01:36:42;;;;;;;3.75;2.03;;;13.70;99.90;;;;;;5004079;28;20045;-81
2023/07/21 01:39:08;;;;;;;4.22;2.35;;;13.80;99.90;;;;;;4986542;28;20548;-82
2023/07/21 01:41:35;;;;;;;4.05;2.38;;;13.80;99.90;;;;;;5007514;28;20044;-82
2023/07/21 01:44:01;;;;;;;4.32;2.35;;;13.60;99.90;;;;;;5006933;28;20397;-82
2023/07/21 01:46:27;;;;;;;3.33;2.38;;;13.60;99.90;;;;;;5003424;28;20038;-82
2023/07/21 01:48:52;;;;;;;4.00;2.30;;;14.20;99.90;;;;;;4985767;28;20039;-81
2023/07/21 01:51:20;;;;;;;2.50;2.30;;;13.50;99.90;;;;;;4988063;28;20056;-82
2023/07/21 01:53:56;;;;;;;3.15;2.15;;;13.50;99.90;;;;;;4972581;28;20037;-82
2023/07/21 01:56:31;;;;;;;3.63;2.45;;;13.40;99.90;;;;;;5004970;28;20052;-82
2023/07/21 01:59:04;;;;;;;3.72;2.65;;;13.50;99.90;;;;;;5003758;28;20614;-80
2023/07/21 02:01:31;;;;;;;3.03;2.70;;;13.40;99.90;;;;;;5007663;28;20405;-82
2023/07/21 02:03:57;;;;;;;5.38;2.88;;;13.40;99.90;;;;;;5016528;28;20048;-82
2023/07/21 02:06:23;;;;;;;7.15;3.45;;;13.40;99.90;;;;;;5010394;28;20487;-82
2023/07/21 02:08:48;;;;;;;3.60;2.70;;;14.30;99.90;;;;;;5004303;28;20532;-81
2023/07/21 02:11:14;;;;;;;5.68;2.97;;;14.20;99.90;;;;;;5004913;28;20097;-82
2023/07/21 02:13:40;;;;;;;3.47;2.30;;;13.70;99.90;;;;;;4988940;28;20406;-82
2023/07/21 02:16:05;;;;;;;4.95;2.22;;;13.20;99.90;;;;;;5007185;28;20081;-82
2023/07/21 02:18:37;;;;;;;5.38;3.30;;;13.20;99.90;;;;;;5003018;28;20050;-82
2023/07/21 02:21:04;;;;;;;5.20;2.65;;;13.20;99.90;;;;;;5002665;28;20046;-83
2023/07/21 02:23:31;;;;;;;3.13;2.22;;;13.20;99.90;;;;;;5006335;28;20042;-82
2023/07/21 02:25:57;;;;;;;3.83;2.70;;;13.20;99.90;;;;;;5006992;28;20042;-80
2023/07/21 02:28:23;;;;;;;5.30;2.80;;;13.30;99.90;;;;;;5003913;28;20408;-82
2023/07/21 02:31:02;;;;;;;5.25;2.58;;;13.20;99.90;;;;;;5003292;28;20042;-82
2023/07/21 02:33:29;;;;;;;3.95;2.72;;;13.20;99.90;;;;;;4988563;28;20081;-83
2023/07/21 02:35:55;;;;;;;2.92;2.65;;;13.10;99.90;;;;;;5006085;28;20049;-81
2023/07/21 02:38:21;;;;;;;3.20;2.80;;;13.10;99.90;;;;;;5005002;28;20375;-82
2023/07/21 02:40:47;;;;;;;3.67;2.45;;;13.10;99.90;;;;;;4985655;28;20045;-81
2023/07/21 02:43:12;;;;;;;3.47;3.20;;;13.10;99.90;;;;;;5003850;28;20057;-82
2023/07/21 02:45:38;;;;;;;5.70;2.65;;;13.10;99.90;;;;;;5003996;28;20038;-81
2023/07/21 02:48:08;;;;;;;3.88;2.97;;;14.50;99.90;;;;;;5003216;28;20604;-83
2023/07/21 02:50:34;;;;;;;3.92;3.10;;;13.10;99.90;;;;;;4999450;28;20094;-82
2023/07/21 02:53:00;;;;;;;3.28;3.00;;;13.30;99.90;;;;;;5000183;28;20046;-82
2023/07/21 02:55:25;;;;;;;4.10;2.88;;;13.00;99.90;;;;;;4968264;28;20486;-82
2023/07/21 02:57:52;;;;;;;4.80;3.05;;;13.00;99.90;;;;;;5003040;28;20040;-83
2023/07/21 03:00:18;;;;;;;5.28;3.17;;;14.20;99.90;;;;;;5002338;28;20085;-81
2023/07/21 03:02:44;;;;;;;3.38;2.80;;;12.90;99.90;;;;;;4999253;28;20085;-82
2023/07/21 03:05:10;;;;;;;4.45;2.83;;;12.90;99.90;;;;;;4982656;28;20081;-82
2023/07/21 03:07:36;;;;;;;4.85;2.92;;;12.90;99.90;;;;;;4984820;28;20482;-81
2023/07/21 03:10:02;;;;;;;4.10;3.15;;;12.90;99.90;;;;;;4985307;28;20203;-82
2023/07/21 03:12:28;;;;;;;5.75;3.17;;;12.80;99.90;;;;;;4983444;28;20455;-82
2023/07/21 03:14:54;;;;;;;5.57;2.90;;;12.80;99.90;;;;;;4999523;28;20474;-81
2023/07/21 03:17:19;;;;;;;3.65;2.70;;;14.10;99.90;;;;;;4999856;28;20049;-81
2023/07/21 03:19:45;;;;;;;3.08;2.78;;;12.80;99.90;;;;;;5002828;28;20385;-82
2023/07/21 03:22:13;;;;;;;3.47;3.17;;;12.80;99.90;;;;;;5003142;28;20095;-81
2023/07/21 03:24:39;;;;;;;5.80;2.95;;;12.80;99.90;;;;;;4957935;28;20047;-81
2023/07/21 03:27:05;;;;;;;3.40;2.65;;;12.80;99.90;;;;;;4981632;28;20069;-82
2023/07/21 03:29:31;;;;;;;4.57;3.78;;;12.80;99.90;;;;;;5001581;28;20053;-82
2023/07/21 03:31:57;;;;;;;3.50;3.20;;;12.80;99.90;;;;;;5002448;28;20042;-82
2023/07/21 03:34:23;;;;;;;3.60;3.30;;;12.70;99.90;;;;;;5006100;28;20042;-81
2023/07/21 03:36:50;;;;;;;4.40;3.22;;;13.60;99.90;;;;;;4998035;28;20553;-82
2023/07/21 03:39:16;;;;;;;4.55;3.67;;;12.70;99.90;;;;;;4998694;28;20053;-82
2023/07/21 03:41:41;;;;;;;3.70;3.13;;;12.60;99.90;;;;;;4993846;28;20042;-80
2023/07/21 03:44:09;;;;;;;4.20;3.38;;;12.50;99.90;;;;;;4999176;28;20627;-82
2023/07/21 03:46:35;;;;;;;6.22;3.10;;;12.50;99.90;;;;;;4992351;28;20049;-82
2023/07/21 03:49:01;;;;;;;3.80;2.97;;;12.50;99.90;;;;;;5007379;28;20389;-81
2023/07/21 03:51:27;;;;;;;3.70;2.88;;;13.20;99.90;;;;;;5001286;28;20042;-82
2023/07/21 03:53:52;;;;;;;3.55;3.25;;;12.60;99.90;;;;;;4981168;28;20053;-82
2023/07/21 03:56:18;;;;;;;3.40;2.92;;;12.60;99.90;;;;;;4998782;28;20042;-81
2023/07/21 03:58:44;;;;;;;6.05;3.22;;;12.60;99.90;;;;;;4972746;28;20398;-81
2023/07/21 04:01:10;;;;;;;5.45;3.35;;;12.60;99.90;;;;;;4999028;28;20138;-81
2023/07/21 04:03:36;;;;;;;4.07;3.05;;;12.60;99.90;;;;;;4998763;28;20078;-82
2023/07/21 04:06:08;;;;;;;3.65;3.35;;;12.60;99.90;;;;;;4997887;28;20057;-81
2023/07/21 04:08:34;;;;;;;4.95;3.00;;;12.60;99.90;;;;;;4983746;28;20043;-82
2023/07/21 04:11:00;;;;;;;3.58;3.28;;;12.60;99.90;;;;;;4984563;28;20461;-81
2023/07/21 04:13:26;;;;;;;3.03;2.72;;;12.60;99.90;;;;;;5000694;28;20108;-82
2023/07/21 04:15:52;;;;;;;4.18;3.47;;;12.50;99.90;;;;;;4998759;28;20042;-81
2023/07/21 04:18:18;;;;;;;3.58;3.13;;;12.50;99.90;;;;;;5006204;28;20582;-82
2023/07/21 04:20:43;;;;;;;3.85;3.47;;;12.50;99.90;;;;;;4997940;28;20101;-81
2023/07/21 04:23:09;;;;;;;4.85;3.15;;;12.50;99.90;;;;;;4998723;28;20446;-82
2023/07/21 04:25:35;;;;;;;3.20;2.90;;;12.50;99.90;;;;;;5000577;28;20046;-81
2023/07/21 04:28:01;;;;;;;5.82;2.65;;;12.50;99.90;;;;;;5000895;28;20494;-82
2023/07/21 04:30:28;;;;;;;5.30;2.97;;;12.50;99.90;;;;;;4983600;28;20120;-81
2023/07/21 04:32:54;;;;;;;4.25;3.10;;;12.60;99.90;;;;;;4998181;28;20080;-82
2023/07/21 04:35:19;;;;;;;3.33;2.72;;;12.60;99.90;;;;;;4997835;28;20081;-82
2023/07/21 04:37:45;;;;;;;3.45;2.90;;;12.60;99.90;;;;;;5000688;28;20034;-81
2023/07/21 04:40:11;;;;;;;7.15;3.28;;;12.60;99.90;;;;;;5002594;28;20041;-81
2023/07/21 04:42:37;;;;;;;5.38;3.17;;;13.20;99.90;;;;;;4999302;28;20085;-83
2023/07/21 04:45:04;;;;;;;4.43;3.55;;;13.50;99.90;;;;;;4997848;28;20174;-83
2023/07/21 04:47:30;;;;;;;3.20;2.75;;;12.60;99.90;;;;;;4998527;28;20053;-82
2023/07/21 04:49:55;;;;;;;5.45;3.00;;;12.60;99.90;;;;;;5001631;28;20037;-82
2023/07/21 04:52:22;;;;;;;3.70;3.10;;;12.60;99.90;;;;;;5001125;28;20045;-81
2023/07/21 04:54:48;;;;;;;4.45;3.40;;;13.50;99.90;;;;;;4981102;28;20050;-82
2023/07/21 04:57:13;;;;;;;3.33;3.03;;;13.60;99.90;;;;;;4995496;28;20493;-81
2023/07/21 04:59:39;;;;;;;3.33;2.97;;;12.70;99.90;;;;;;4993173;28;20061;-81
2023/07/21 05:02:05;;;;;;;3.13;2.85;;;12.80;99.90;;;;;;5000408;28;20054;-82
2023/07/21 05:04:31;;;;;;;5.70;3.72;;;12.80;99.90;;;;;;5000366;28;20153;-80
2023/07/21 05:06:56;;;;;;;3.60;3.15;;;12.80;99.90;;;;;;4997177;28;20041;-82
2023/07/21 05:09:22;;;;;;;3.28;2.92;;;12.80;99.90;;;;;;5000366;28;20057;-80
2023/07/21 05:11:48;;;;;;;7.75;3.70;;;12.90;99.90;;;;;;5000650;28;20042;-80
2023/07/21 05:14:14;;;;;;;4.95;3.60;;;12.90;99.90;;;;;;5001052;28;20038;-81
2023/07/21 05:16:40;;;;;;;8.00;3.30;;;13.00;99.90;;;;;;4998446;28;20049;-82
2023/07/21 05:19:06;;;;;;;6.85;3.83;;;13.00;99.90;;;;;;4998483;28;20402;-81
2023/07/21 05:21:31;;;;;;;6.50;3.47;;;13.00;99.90;;;;;;4997639;28;20038;-81
2023/07/21 05:23:57;;;;;;;3.78;3.22;;;13.10;99.90;;;;;;4979713;28;20058;-80
2023/07/21 05:26:23;;;;;;;4.18;3.40;;;13.10;99.90;;;;;;5001160;28;20045;-80
2023/07/21 05:28:54;;;;;;;6.15;3.67;;;13.10;99.90;;;;;;4991997;28;20053;-81
2023/07/21 05:31:20;;;;;;;5.35;3.28;;;13.20;99.90;;;;;;5004937;28;20049;-80
2023/07/21 05:33:46;;;;;;;4.28;2.90;;;13.20;99.90;;;;;;4999028;28;20137;-81
2023/07/21 05:36:11;;;;;;;3.63;3.05;;;13.20;99.90;;;;;;4997246;28;20055;-80
2023/07/21 05:38:37;;;;;;;5.70;3.17;;;14.50;99.90;;;;;;4997713;28;20410;-81
2023/07/21 05:41:04;;;;;;;4.18;3.00;;;13.20;99.90;;;;;;5002288;28;20080;-82
2023/07/21 05:43:30;;;;;;;3.70;2.50;;;13.30;99.90;;;;;;5000949;28;20084;-81
2023/07/21 05:45:56;;;;;;;6.47;2.92;;;13.30;99.90;;;;;;4988838;28;20456;-81
2023/07/21 05:48:23;;;;;;;3.90;3.20;;;13.30;99.90;;;;;;4997192;28;20050;-81
2023/07/21 05:50:48;;;;;;;5.13;2.90;;;14.40;99.90;;;;;;4999664;28;20437;-82
2023/07/21 05:53:14;;;;;;;4.15;2.70;;;13.40;99.90;;;;;;5000203;28;20056;-81
2023/07/21 05:55:43;;;;;;;8.00;6.65;;;13.40;99.90;;;;;;5001059;28;20049;-81
2023/07/21 05:58:09;;;;;;;7.97;3.95;;;13.40;99.90;;;;;;4998541;28;20133;-81
2023/07/21 06:00:39;;;;;;;3.25;2.95;;;13.50;99.90;;;;;;4996569;28;20538;-81
2023/07/21 06:03:05;;;;;;;4.18;2.78;;;13.50;99.90;;;;;;4982821;28;20541;-82
2023/07/21 06:05:32;;;;;;;5.88;2.22;;;13.60;99.90;;;;;;5008929;28;20361;-81
2023/07/21 06:07:58;;;;;;;2.30;2.10;;;13.70;99.90;;;;;;4996802;28;20054;-81
2023/07/21 06:10:24;;;;;;;4.28;2.72;;;15.30;99.90;;;;;;4996938;28;20050;-82
2023/07/21 06:12:49;;;;;;;2.70;2.10;;;14.80;99.90;;;;;;4998735;28;20070;-81
2023/07/21 06:15:15;;;;;;;5.18;2.03;;;13.80;99.90;;;;;;5000251;28;20053;-81
2023/07/21 06:17:41;;;;;;;5.60;2.30;;;13.80;99.90;;;;;;4999728;28;20057;-80
2023/07/21 06:20:09;;;;;;;5.50;2.35;;;14.20;99.90;;;;;;4997078;28;20039;-81
2023/07/21 06:22:35;;;;;;;3.28;1.58;;;14.00;99.90;;;;;;4983169;28;20123;-80
2023/07/21 06:25:03;;;;;;;4.05;2.00;;;14.00;99.90;;;;;;4974919;28;20485;-81
2023/07/21 06:27:29;;;;;;;5.05;2.13;;;14.10;99.90;;;;;;4999652;28;20054;-82
2023/07/21 06:29:55;;;;;;;4.88;1.80;;;14.20;99.90;;;;;;5002656;28;20038;-81
2023/07/21 06:32:21;;;;;;;6.65;2.30;;;14.30;99.90;;;;;;5005921;28;20057;-83
2023/07/21 06:34:47;;;;;;;5.18;2.70;;;15.30;99.90;;;;;;4984375;28;20103;-83
2023/07/21 06:37:13;;;;;;;3.88;2.00;;;14.30;99.90;;;;;;5000124;28;20046;-80
2023/07/21 06:39:38;;;;;;;3.08;1.98;;;14.40;99.90;;;;;;5001130;28;20138;-80
2023/07/21 06:42:05;;;;;;;7.40;2.15;;;14.60;99.90;;;;;;5003228;28;20042;-83
2023/07/21 06:44:31;;;;;;;3.75;2.00;;;14.60;99.90;;;;;;4985917;28;20046;-80
2023/07/21 06:46:57;;;;;;;7.30;1.92;;;14.70;99.90;;;;;;5001040;28;20076;-81
2023/07/21 06:49:23;;;;;;;5.70;1.52;;;14.80;99.90;;;;;;4999971;28;20046;-81
2023/07/21 06:51:49;;;;;;;3.22;1.95;;;15.70;99.90;;;;;;5001395;28;20049;-80
2023/07/21 06:54:14;;;;;;;5.85;1.90;;;15.80;99.90;;;;;;4985665;28;20459;-81
2023/07/21 06:56:40;;;;;;;4.05;1.38;;;15.10;99.90;;;;;;5002791;28;20049;-81
2023/07/21 06:59:06;;;;;;;3.08;1.58;;;15.10;99.90;;;;;;5000152;28;20065;-81
2023/07/21 07:01:31;;;;;;;2.15;1.30;;;15.20;99.90;;;;;;5000480;28;20054;-81
2023/07/21 07:03:58;;;;;;;2.55;1.20;;;15.20;99.90;;;;;;5001439;28;20126;-80
2023/07/21 07:06:24;;;;;;;1.65;0.55;;;15.30;99.90;;;;;;5004211;28;20124;-83
2023/07/21 07:08:49;;;;;;;0.68;0.60;;;15.40;99.90;;;;;;5008339;28;20061;-83
2023/07/21 07:11:15;;;;;;;1.45;1.15;;;15.50;99.90;;;;;;4991875;28;20042;-84
2023/07/21 07:13:41;;;;;;;2.45;1.45;;;15.50;99.90;;;;;;5002379;28;20042;-83
2023/07/21 07:16:06;;;;;;;1.55;1.27;;;15.60;99.90;;;;;;4985437;28;20482;-81
2023/07/21 07:18:32;;;;;;;2.85;1.40;;;15.60;99.90;;;;;;4985592;28;20045;-84
2023/07/21 07:20:58;;;;;;;3.45;2.75;;;15.70;99.90;;;;;;5000754;28;20038;-83
2023/07/21 07:23:23;;;;;;;2.05;1.60;;;15.80;99.90;;;;;;4999255;28;20092;-82
2023/07/21 07:25:52;;;;;;;4.65;2.05;;;15.90;99.90;;;;;;5000099;28;20421;-82
2023/07/21 07:28:19;;;;;;;3.28;2.15;;;16.00;99.90;;;;;;5002888;28;20048;-81
2023/07/21 07:30:45;;;;;;;3.40;2.60;;;16.00;99.90;;;;;;5001655;28;20107;-81
2023/07/21 07:33:14;;;;;;;3.88;2.38;;;16.00;99.90;;;;;;4999690;28;20041;-83
2023/07/21 07:35:53;;;;;;;2.60;2.25;;;16.10;99.90;;;;;;4982450;28;20037;-83
2023/07/21 07:38:23;;;;;;;3.83;2.15;;;16.10;99.90;;;;;;4974096;28;20096;-81
2023/07/21 07:40:49;;;;;;;2.15;1.65;;;16.20;99.90;;;;;;4999926;28;20034;-81
2023/07/21 07:43:15;;;;;;;1.58;1.48;;;16.20;99.90;;;;;;5002354;28;20406;-82
2023/07/21 07:45:41;;;;;;;1.92;1.50;;;16.20;99.90;;;;;;4984829;28;20545;-81
2023/07/21 07:48:07;;;;;;;3.58;1.50;;;16.30;99.90;;;;;;4981985;28;20597;-81
2023/07/21 07:50:39;;;;;;;3.00;1.58;;;16.30;99.90;;;;;;4999010;28;20045;-81
2023/07/21 07:53:06;;;;;;;3.38;1.67;;;16.30;99.90;;;;;;5000345;28;20046;-81
2023/07/21 07:55:42;;;;;;;2.47;1.63;;;15.80;99.90;;;;;;5002437;28;20135;-81
2023/07/21 07:58:08;;;;;;;1.05;1.00;;;16.40;99.90;;;;;;4999305;28;20061;-81
2023/07/21 08:00:36;;;;;;;3.25;1.15;;;16.50;99.90;;;;;;4998868;28;20054;-82
2023/07/21 08:03:06;;;;;;;1.95;1.00;;;16.50;99.90;;;;;;4983145;28;20061;-82
2023/07/21 08:05:34;;;;;;;1.75;0.82;;;16.50;99.90;;;;;;4983823;28;20041;-81
2023/07/21 08:08:02;;;;;;;2.78;1.30;;;16.60;99.90;;;;;;5001462;28;20046;-82
2023/07/21 08:10:28;;;;;;;1.25;1.00;;;16.70;99.90;;;;;;5001923;28;20045;-82
2023/07/21 08:12:58;;;;;;;1.10;0.75;;;16.70;99.90;;;;;;5000572;28;20045;-82
2023/07/21 08:15:25;;;;;;;0.82;0.43;;;16.80;99.90;;;;;;4998883;28;20117;-82
2023/07/21 08:17:51;;;;;;;0.80;0.57;;;16.80;99.90;;;;;;4998819;28;20042;-81
2023/07/21 08:20:18;;;;;;;3.35;0.88;;;16.90;99.90;;;;;;4989838;28;20367;-81
2023/07/21 08:22:53;;;;;;;0.70;0.63;;;16.80;99.90;;;;;;4964574;28;20121;-80
2023/07/21 08:25:19;;;;;;;3.53;1.35;;;17.00;99.90;;;;;;4989659;28;20038;-82
2023/07/21 08:27:45;;;;;;;3.15;0.65;;;17.10;99.90;;;;;;4984497;28;20046;-82
2023/07/21 08:30:12;;;;;;;2.25;1.30;;;17.10;99.90;;;;;;4976819;28;20046;-83
2023/07/21 08:32:40;;;;;;;3.22;1.10;;;17.10;99.90;;;;;;4985080;28;20046;-81
2023/07/21 08:35:07;;;;;;;2.08;1.15;;;17.20;99.90;;;;;;4990042;28;20054;-81
2023/07/21 08:37:33;;;;;;;1.83;1.10;;;17.30;99.90;;;;;;4961355;28;20445;-79
2023/07/21 08:40:00;;;;;;;2.00;0.90;;;17.30;99.90;;;;;;4980662;28;20442;-78
2023/07/21 08:42:28;;;;;;;1.92;1.73;;;17.30;99.90;;;;;;4986379;28;20042;-81
2023/07/21 08:44:55;;;;;;;2.28;1.10;;;17.30;99.90;;;;;;4983710;28;20052;-80
2023/07/21 08:47:21;;;;;;;1.42;0.63;;;17.50;99.90;;;;;;4992237;28;20046;-78
2023/07/21 08:49:47;;;;;;;1.63;0.73;;;17.30;99.90;;;;;;4996716;28;20135;-79
2023/07/21 08:52:14;;;;;;;1.83;1.20;;;17.40;99.90;;;;;;4987098;28;20101;-79
2023/07/21 08:54:39;;;;;;;4.68;0.80;;;17.50;99.90;;;;;;4995684;28;20034;-79
2023/07/21 08:57:05;;;;;;;0.77;0.60;;;17.60;99.90;;;;;;4965849;28;20046;-79
2023/07/21 08:59:31;;;;;;;2.55;0.60;;;17.70;99.90;;;;;;4990659;28;20069;-81
2023/07/21 09:01:57;;;;;;;2.72;0.80;;;17.70;99.90;;;;;;4993028;28;20042;-78
2023/07/21 09:04:24;;;;;;;0.82;0.60;;;17.70;99.90;;;;;;4980892;28;20053;-78
2023/07/21 09:06:56;;;;;;;3.35;0.98;;;17.80;99.90;;;;;;5001839;28;20041;-78
2023/07/21 09:09:23;;;;;;;0.77;0.75;;;17.80;99.90;;;;;;4977825;28;20042;-78
2023/07/21 09:11:50;;;;;;;2.03;0.68;;;17.80;99.90;;;;;;4993058;28;20512;-77
2023/07/21 09:14:16;;;;;;;1.63;1.00;;;18.00;99.90;;;;;;4983415;28;20049;-77
2023/07/21 09:16:48;;;;;;;0.73;0.70;;;17.90;99.90;;;;;;4980471;28;20382;-77
2023/07/21 09:19:19;;;;;;;1.25;0.70;;;18.10;99.90;;;;;;4996728;28;20046;-77
2023/07/21 09:21:55;;;;;;;0.80;0.35;;;18.10;99.90;;;;;;4980008;28;20054;-77
2023/07/21 09:24:21;;;;;;;0.60;0.30;;;18.20;99.90;;;;;;4998668;28;20073;-77
2023/07/21 09:26:46;;;;;;;0.30;0.30;;;18.20;99.90;;;;;;4998332;28;20464;-77
2023/07/21 09:29:18;;;;;;;1.05;0.40;;;18.20;99.90;;;;;;4997791;28;20038;-77
2023/07/21 09:31:47;;;;;;;2.00;0.65;;;18.20;99.90;;;;;;4990271;28;20126;-77
2023/07/21 09:34:12;;;;;;;0.73;0.40;;;18.30;99.90;;;;;;4984728;28;20112;-77
2023/07/21 09:36:45;;;;;;;1.23;0.45;;;18.30;99.90;;;;;;4999037;28;20050;-77
2023/07/21 09:39:14;;;;;;;3.20;0.60;;;18.30;99.90;;;;;;4984933;28;20501;-77
2023/07/21 09:41:40;;;;;;;2.92;0.68;;;18.50;99.90;;;;;;4995746;28;20162;-77
2023/07/21 09:44:06;;;;;;;1.17;0.35;;;18.60;99.90;;;;;;4969641;28;20247;-77
2023/07/21 09:46:33;;;;;;;1.73;0.60;;;18.60;99.90;;;;;;4966337;28;20398;-77
2023/07/21 09:48:58;;;;;;;2.58;0.30;;;18.70;99.90;;;;;;4991231;28;20045;-77
2023/07/21 09:51:26;;;;;;;2.15;0.50;;;18.80;99.90;;;;;;4990086;28;20042;-77
2023/07/21 09:53:54;;;;;;;0.50;0.43;;;18.80;99.90;;;;;;4985243;28;20401;-79
2023/07/21 09:56:21;;;;;;;1.10;0.50;;;18.80;99.90;;;;;;5002117;28;20054;-78
2023/07/21 09:59:00;;;;;;;1.05;0.50;;;18.90;99.90;;;;;;5003117;28;20492;-86
2023/07/21 10:01:26;;;;;;;1.70;0.30;;;18.80;99.90;;;;;;4968932;28;20055;-83
2023/07/21 10:03:52;;;;;;;0.95;0.60;;;18.90;99.90;;;;;;4995268;28;20042;-85
2023/07/21 10:06:19;;;;;;;1.30;0.70;;;18.90;99.90;;;;;;4988126;28;20047;-83
2023/07/21 10:08:45;;;;;;;2.42;0.90;;;18.90;99.90;;;;;;5004224;28;20046;-86
2023/07/21 10:11:12;;;;;;;0.63;0.40;;;19.00;99.90;;;;;;4991547;28;20058;-85
2023/07/21 10:13:46;;;;;;;2.53;0.93;;;19.10;99.90;;;;;;4985882;28;20053;-85
2023/07/21 10:16:13;;;;;;;3.67;1.20;;;19.20;99.90;;;;;;4990684;28;20531;-86
2023/07/21 10:19:01;;;;;;;2.97;1.17;;;19.40;99.90;;;;;;4999387;28;20054;-86
2023/07/21 10:21:49;;;;;;;1.92;1.10;;;19.20;99.90;;;;;;5002202;28;20406;-86
2023/07/21 10:24:25;;;;;;;3.70;1.20;;;19.20;99.90;;;;;;5003321;28;20099;-87
2023/07/21 10:26:56;;;;;;;3.78;1.45;;;19.20;99.90;;;;;;4993376;28;20040;-84
2023/07/21 10:29:22;;;;;;;2.30;0.70;;;19.20;99.90;;;;;;4980424;28;20053;-89
2023/07/21 10:31:55;;;;;;;1.90;0.73;;;19.30;99.90;;;;;;5005379;28;20091;-82
2023/07/21 10:34:42;;;;;;;1.58;0.90;;;19.30;99.90;;;;;;4997765;28;20051;-85
2023/07/21 10:37:08;;;;;;;2.35;0.80;;;19.30;99.90;;;;;;4986483;28;20264;-80
2023/07/21 10:39:36;;;;;;;2.13;1.00;;;19.40;99.90;;;;;;4992946;28;20129;-81
2023/07/21 10:42:06;;;;;;;1.98;1.02;;;19.40;99.90;;;;;;4992319;28;20118;-81
2023/07/21 10:44:40;;;;;;;0.95;0.70;;;19.40;99.90;;;;;;4982492;28;20051;-82
2023/07/21 10:47:13;;;;;;;3.20;1.05;;;19.40;99.90;;;;;;4982470;28;20517;-83
2023/07/21 10:49:39;;;;;;;2.35;0.80;;;19.50;99.90;;;;;;4994315;28;20046;-82
2023/07/21 10:52:05;;;;;;;2.55;1.00;;;19.50;99.90;;;;;;4986721;28;20045;-84
2023/07/21 10:54:31;;;;;;;0.77;0.77;;;19.50;99.90;;;;;;4986986;28;20047;-81
2023/07/21 10:56:58;;;;;;;1.60;1.05;;;19.50;99.90;;;;;;4981880;28;20094;-81
2023/07/21 10:59:24;;;;;;;0.82;0.80;;;19.60;99.90;;;;;;4998899;28;20069;-82
2023/07/21 11:01:53;;;;;;;1.60;0.70;;;19.70;99.90;;;;;;4975115;28;20482;-81
2023/07/21 11:04:20;;;;;;;1.75;0.90;;;19.90;99.90;;;;;;5002427;28;20058;-81
2023/07/21 11:06:51;;;;;;;5.57;1.40;;;19.80;99.90;;;;;;4964641;28;20038;-81
2023/07/21 11:09:18;;;;;;;1.00;0.68;;;19.80;99.90;;;;;;5000039;28;20494;-81
2023/07/21 11:11:45;;;;;;;1.70;0.75;;;19.80;99.90;;;;;;4998543;28;20056;-81
2023/07/21 11:14:20;;;;;;;1.10;0.90;;;19.80;99.90;;;;;;4994305;28;20035;-81
2023/07/21 11:16:55;;;;;;;4.20;1.73;;;19.90;99.90;;;;;;4973929;28;20393;-81
2023/07/21 11:19:23;;;;;;;4.63;1.85;;;19.90;99.90;;;;;;4987671;28;20258;-81
2023/07/21 11:21:49;;;;;;;1.23;1.15;;;19.90;99.90;;;;;;4979437;28;20049;-81
2023/07/21 11:24:16;;;;;;;4.60;1.60;;;20.00;99.90;;;;;;4962559;28;20047;-81
2023/07/21 11:26:42;;;;;;;1.23;1.13;;;19.90;99.30;;;;;;5001670;28;20038;-81
2023/07/21 11:29:08;;;;;;;2.85;1.38;;;20.00;99.20;;;;;;5002455;28;20111;-81
2023/07/21 11:31:37;;;;;;;2.25;1.30;;;20.00;98.80;;;;;;4983597;28;20057;-81
2023/07/21 11:34:16;;;;;;;3.80;1.50;;;20.00;99.40;;;;;;4999405;28;20429;-82
2023/07/21 11:36:42;;;;;;;2.50;1.30;;;20.10;99.70;;;;;;5000372;28;20054;-81
2023/07/21 11:39:10;;;;;;;1.23;1.13;;;20.20;99.90;;;;;;5002594;28;20320;-82
2023/07/21 11:41:43;;;;;;;7.40;1.45;;;20.30;99.90;;;;;;4994768;28;20149;-81
2023/07/21 11:44:16;;;;;;;1.73;1.20;;;20.40;98.80;;;;;;5004385;28;20049;-82
2023/07/21 11:46:53;;;;;;;1.13;1.10;;;20.40;98.90;;;;;;5003489;28;20057;-81
2023/07/21 11:49:19;;;;;;;4.80;1.60;;;20.80;99.50;;;;;;5002726;28;20088;-82
2023/07/21 11:51:46;;;;;;;1.42;1.05;;;20.50;99.10;;;;;;4999561;28;20092;-82
2023/07/21 11:54:19;;;;;;;1.42;1.33;;;20.70;98.30;;;;;;4981424;28;20134;-82
2023/07/21 11:56:44;;;;;;;1.58;0.95;;;20.60;98.90;;;;;;5000970;28;20056;-82
2023/07/21 11:59:10;;;;;;;2.50;1.38;;;20.60;98.80;;;;;;4999323;28;20061;-82
2023/07/21 12:01:36;;;;;;;1.08;0.93;;;20.50;98.90;;;;;;4994324;28;20486;-81
2023/07/21 12:04:01;;;;;;;2.22;1.60;;;20.50;99.10;;;;;;4998523;28;20041;-82
2023/07/21 12:06:27;;;;;;;1.65;1.25;;;20.40;99.50;;;;;;4995142;28;20034;-82
2023/07/21 12:08:52;;;;;;;1.88;1.40;;;20.40;98.70;;;;;;5005752;28;20038;-82
2023/07/21 12:11:18;;;;;;;2.65;1.40;;;20.30;98.80;;;;;;5006722;28;20093;-81
2023/07/21 12:13:44;;;;;;;2.42;1.67;;;20.20;99.00;;;;;;4986346;28;20113;-81
2023/07/21 12:16:11;;;;;;;2.38;1.70;;;20.10;99.30;;;;;;4988477;28;20038;-81
2023/07/21 12:18:38;;;;;;;2.30;1.83;;;20.10;99.90;;;;;;5006682;28;20402;-80
2023/07/21 12:21:08;;;;;;;6.25;3.08;;;19.90;99.90;;;;;;5002339;28;20493;-82
2023/07/21 12:23:34;;;;;;;4.88;2.70;;;19.90;99.90;;;;;;5001284;28;20501;-81
2023/07/21 12:26:00;;;;;;;4.10;2.28;;;19.80;99.90;;;;;;4992412;28;20054;-81
2023/07/21 12:28:26;;;;;;;6.53;2.92;;;19.80;99.90;;;;;;4998424;28;20124;-86
2023/07/21 12:30:52;;;;;;;4.25;2.20;;;19.70;99.90;;;;;;5000246;28;20077;-88
2023/07/21 12:33:17;;;;;;;3.47;2.05;;;19.60;99.90;;;;;;4999831;28;20057;-88
2023/07/21 12:35:44;;;;;;;4.13;2.40;;;19.50;99.90;;;;;;4998058;28;20049;-83
2023/07/21 12:38:10;;;;;;;4.75;2.90;;;19.50;99.90;;;;;;4987472;28;20054;-81
2023/07/21 12:40:36;;;;;;;4.35;2.95;;;19.40;99.90;;;;;;4992067;28;20050;-82
2023/07/21 12:43:03;;;;;;;3.47;2.70;;;19.20;99.90;;;;;;4992324;28;20042;-82
2023/07/21 12:45:28;;;;;;;10.10;3.45;;;19.00;99.90;;;;;;4992564;28;20042;-81
2023/07/21 12:47:54;;;;;;;16.63;4.03;;;18.60;99.90;;;;;;4994623;28;20030;-83